Aviation Digital Data Service (ADDS)

Output produced by METARs form (0651 UTC 24 March 2019)
found at http://www.aviationweather.gov/metar/data/
 
KAKR 240554Z AUTO 00000KT 10SM CLR M02/M07 A3022 RMK AO2 SLP243 T10221067 10050 21022 58009 $
KCAK 240551Z 00000KT 10SM CLR 01/M08 A3023 RMK AO2 SLP246 T00111083 10061 20011 58009
KCAK 240532Z 2406/2506 20004KT P6SM BKN250 
     FM242000 23007KT P6SM BKN050 
     FM250300 VRB03KT 3SM -SHRA OVC030
       
KHZY 240553Z AUTO 19003KT 10SM CLR M03/M11 A3023 RMK AO2 SLP247 T10281111 10000 21028 56007
KI69 240635Z AUTO 00000KT 10SM CLR 03/M02 A3025 RMK AO2 T00301017
KEDJ 240640Z AUTO 17005KT 10SM CLR 02/M07 A3023 RMK AO1
KCDI 240635Z AUTO 00000KT 10SM CLR M04/M05 A3027 RMK AO2 T10401052
KRZT 240635Z AUTO 00000KT 10SM CLR M01/M04 A3025 RMK AO2
KCVG 240552Z 18003KT 10SM SCT160 BKN250 04/M04 A3023 RMK AO2 SLP238 T00441044 10111 20039 58010
KCVG 240530Z 2406/2512 VRB03KT P6SM BKN200 
     FM241100 14004KT P6SM OVC080 
     FM241600 20006KT P6SM -SHRA OVC040 
     FM242300 18005KT P6SM VCSH OVC025 
     FM250600 VRB03KT 5SM -SHRA SCT025 OVC035
       
KLUK 240553Z AUTO 00000KT 10SM CLR 02/M02 A3027 RMK AO2 SLP251 T00221017 10106 20017 56008
KLUK 240530Z 2406/2506 VRB03KT P6SM BKN200 
     FM241100 14004KT P6SM OVC080 
     FM241600 20006KT P6SM -SHRA OVC040 
     FM242300 18005KT P6SM VCSH OVC025
       
KBKL 240553Z AUTO 16007KT 10SM CLR 02/M06 A3022 RMK AO2 SLP240 T00171061 10039 20017 57009
KCLE 240551Z 19005KT 10SM FEW250 00/M06 A3025 RMK AO2 SLP250 T00001056 10044 21006 58008
KCLE 240532Z 2406/2512 18006KT P6SM BKN250 
     FM241800 29009KT P6SM OVC080 
     FM250300 02010KT P6SM OVC035 
     FM251000 03013G23KT 5SM -SHSN BKN025
       
KCGF 240245Z 18005KT 10SM SKC M01/M08 A3025
KTZR 240635Z AUTO 00000KT 10SM CLR 02/M07 A3024 RMK AO2 T00171069
KOSU 240553Z AUTO 00000KT 10SM CLR 01/M06 A3025 RMK AO2 SLP250 T00111056 10083 20006 55005
KCMH 240551Z 00000KT 10SM BKN250 00/M06 A3025 RMK AO2 SLP251 T00001061 10100 20000 56006
KCMH 240530Z 2406/2506 00000KT P6SM SCT250 
     FM241000 18005KT P6SM BKN250 
     FM241700 22008KT P6SM OVC080 
     FM242100 24005KT P6SM -SHRA OVC040 
     FM250100 VRB03KT P6SM -SHRA OVC025 
     FM250400 VRB03KT P6SM VCSH OVC022
       
KLCK 240635Z AUTO 13003KT 10SM CLR 00/M03 A3025 RMK AO2 T10031033
KLCK 240530Z 2406/2506 00000KT P6SM SCT250 
     FM241000 18005KT P6SM BKN250 
     FM241700 22008KT P6SM OVC080 
     FM242100 24005KT P6SM -SHRA OVC040 
     FM250100 VRB03KT P6SM -SHRA OVC025 
     FM250400 VRB03KT P6SM VCSH OVC022
       
KMGY 240553Z AUTO 17004KT 10SM CLR 07/M08 A3023 RMK AO2 SLP241 T00671078 10100 20044 58007
KI19 240636Z AUTO 18003KT 10SM CLR 01/M04 A3026 RMK AO2 T00121044
KDAY 240556Z 16005KT 10SM BKN250 05/M08 A3024 RMK AO2 SLP245 T00501083 10100 20044 56009
KDAY 240530Z 2406/2506 VRB03KT P6SM SCT250 
     FM241000 18005KT P6SM BKN250 
     FM241600 21008KT P6SM OVC080 
     FM241900 15006KT P6SM -SHRA OVC040 
     FM242300 VRB03KT P6SM -SHRA OVC025 
     FM250200 VRB03KT P6SM VCSH OVC015
       
KDFI 240553Z AUTO 22003KT 10SM CLR M02/M04 A3023 RMK AO2 SLP244 T10171044 10072 21017 56009
KDLZ 240635Z AUTO 00000KT 10SM CLR M01/M03 A3024 RMK AO2
KFDY 240553Z AUTO 19005KT 10SM CLR 00/M04 A3023 RMK AO2 SLP239 T00001039 10078 21011 56006
KFDY 240532Z 2406/2506 20005KT P6SM BKN250 
     FM242200 27004KT P6SM OVC050 
     FM250100 VRB03KT 4SM -SHRA BR OVC025
       
KHAO 240553Z AUTO 00000KT 10SM CLR 01/M03 A3025 RMK AO2 SLP248 T00111033 10083 20011 56009
KI67 240635Z AUTO 00000KT 10SM CLR 01/M02 A3023 RMK AO1
KLHQ 240553Z AUTO 18003KT 10SM CLR M01/M04 A3026 RMK AO2 SLP254 T10111039 10083 21022 55007
KAOH 240553Z AUTO 16006KT 10SM CLR 02/M05 A3023 RMK AO2 SLP244 T00171050 10072 21011 56008
KUYF 240635Z AUTO 20003KT 10SM CLR 00/M03 A3024 RMK AO2
KLPR 240553Z AUTO VRB03KT 10SM CLR M01/M07 A3023 RMK AO2 SLP245 T10111072 10050 21017 58008
KMFD 240552Z AUTO 18005KT 10SM CLR M02/M06 A3023 RMK AO2 SLP247 T10171061 10056 21022 58008
KMFD 240532Z 2406/2506 21005KT P6SM BKN250 
     FM242000 25008KT P6SM OVC060 
     FM250100 VRB03KT 3SM -SHRA BR OVC015
       
KMNN 240553Z AUTO A3025 RMK AO2 SLPNO 56006 PWINO FZRANO $
KMRT 240635Z AUTO 00000KT 10SM CLR M01/M04 A3024 RMK AO2 T10111044
KMWO 240635Z AUTO 00000KT 10SM CLR 00/M03 A3025 RMK AO2 T10051029
K4I3 240635Z AUTO 00000KT 10SM CLR 00/M08 A3025 RMK AO2
KVTA 240554Z AUTO 00000KT 10SM CLR M01/M04 A3025 RMK AO2 SLP249 T10111044 10089 21022 56007
KPHD 240553Z AUTO 00000KT 10SM CLR M02/M06 A3026 RMK AO2 SLP254 T10221061 10072 21028 58007
KOWX 240635Z AUTO 20003KT 10SM CLR M01/M03 A3024 RMK AO1
KOXD 240636Z AUTO 17004KT 10SM CLR 05/M03 A3022 RMK AO2 T00531027
KPCW 240635Z AUTO 22006KT 10SM CLR 03/M03 A3022 RMK AO2
KPMH 240635Z AUTO 00000KT 10SM CLR M01/M03 A3028 RMK AO2 T10101029
KPOV 240635Z AUTO 00000KT 10SM CLR M02/M07 A3023 RMK AO2 T10201074 PWINO
KSGH 240556Z AUTO 16004KT 10SM CLR M01/M05 A3024 RMK AO2 SLP251 T10111050 10089 21011 56009
KTDZ 240553Z AUTO 22004KT 10SM CLR 01/M04 A3023 RMK AO2 SLP242 T00111044 10067 20006 56008
KTOL 240552Z 00000KT 10SM CLR 00/M06 A3022 RMK AO2 SLP239 T00001061 10078 21006 58008
KTOL 240532Z 2406/2506 23004KT P6SM BKN250 
     FM241200 21004KT P6SM OVC150 
     FM242100 23005KT P6SM OVC045 
     FM250200 VRB02KT P6SM OVC025
       
KI74 240635Z AUTO 00000KT 10SM CLR M03/M05 A3024 RMK AO2
KVNW 240635Z AUTO 00000KT 10SM CLR 00/M04 A3023 RMK AO2
KVES 240630Z AUTO 00000KT 10SM CLR 00/00 A3022 RMK AO2
KAXV 240635Z AUTO 00000KT 10SM CLR M01/M03 A3023 RMK AO2
KI23 240635Z AUTO 00000KT 10SM CLR M01/M03 A3024 RMK AO1
KUSE 240640Z AUTO 26003KT 10SM CLR 02/M03 A3021 RMK AO2
KLNN 240635Z AUTO 20003KT 10SM CLR M02/M09 A3022 RMK AO1 T10161087
KILN 240554Z AUTO 17003KT 10SM CLR 03/M08 A3024 RMK AO2 SLP257 T00331078 10078 20022 58008
KILN 240530Z 2406/2506 VRB03KT P6SM SCT250 
     FM241000 17004KT P6SM BKN250 
     FM241700 21008KT P6SM OVC080 
     FM242000 19006KT P6SM -SHRA OVC040 
     FM250000 17004KT P6SM -SHRA OVC025 
     FM250300 VRB03KT P6SM VCSH OVC022
       
KBJJ 240556Z AUTO 00000KT 10SM CLR M03/M04 A3023 RMK AO2 SLP249 T10281044 10039 21033 58008
KYNG 240551Z 19004KT 10SM CLR M02/M11 A3022 RMK AO2 SLP246 T10171111 10039 21033 58006
KYNG 240532Z 2406/2506 19004KT P6SM SKC 
     FM241200 21004KT P6SM BKN200 
     FM242000 25006KT P6SM OVC060 
     FM250000 VRB03KT P6SM VCSH OVC030
       
KZZV 240553Z AUTO 00000KT 10SM CLR 00/M06 A3025 RMK AO2 SLP249 T00001061 10089 21006 58009
KZZV 240524Z 2406/2506 19003KT P6SM BKN250 
     FM241800 22006KT P6SM BKN150 
     FM250200 18004KT 6SM -SHRA BR OVC022